createdAt,value
2023-05-16T00:01:38.346Z,99.90
2023-05-16T00:04:07.456Z,99.90
2023-05-16T00:06:37.254Z,99.90
2023-05-16T00:09:05.384Z,99.90
2023-05-16T00:11:33.535Z,99.90
2023-05-16T00:14:02.512Z,99.90
2023-05-16T00:16:30.701Z,99.90
2023-05-16T00:18:59.870Z,99.90
2023-05-16T00:21:28.138Z,99.90
2023-05-16T00:23:57.570Z,99.90
2023-05-16T00:26:26.285Z,99.90
2023-05-16T00:28:54.357Z,99.90
2023-05-16T00:31:22.590Z,99.90
2023-05-16T00:33:53.021Z,99.90
2023-05-16T00:36:23.713Z,99.90
2023-05-16T00:38:52.134Z,99.90
2023-05-16T00:41:21.873Z,99.90
2023-05-16T00:43:50.001Z,99.90
2023-05-16T00:46:18.221Z,99.90
2023-05-16T00:48:46.538Z,99.90
2023-05-16T00:51:14.699Z,99.90
2023-05-16T00:53:43.250Z,99.90
2023-05-16T00:56:22.074Z,99.90
2023-05-16T00:58:51.236Z,99.90
2023-05-16T01:01:21.695Z,99.90
2023-05-16T01:03:50.666Z,99.90
2023-05-16T01:06:18.959Z,99.90
2023-05-16T01:08:47.159Z,99.90
2023-05-16T01:11:24.158Z,99.90
2023-05-16T01:14:01.726Z,99.90
2023-05-16T01:16:37.558Z,99.90
2023-05-16T01:19:17.588Z,99.90
2023-05-16T01:21:53.316Z,99.90
2023-05-16T01:24:28.412Z,99.90
2023-05-16T01:27:00.130Z,99.90
2023-05-16T01:29:28.595Z,99.90
2023-05-16T01:31:58.269Z,99.90
2023-05-16T01:34:26.887Z,99.90
2023-05-16T01:37:08.805Z,99.90
2023-05-16T01:39:43.178Z,99.90
2023-05-16T01:42:16.213Z,99.90
2023-05-16T01:44:49.112Z,99.90
2023-05-16T01:47:19.850Z,99.90
2023-05-16T01:49:59.383Z,99.90
2023-05-16T01:52:32.285Z,99.90
2023-05-16T01:55:04.273Z,99.90
2023-05-16T01:57:35.536Z,99.90
2023-05-16T02:00:03.891Z,99.90
2023-05-16T02:02:42.292Z,99.90
2023-05-16T02:05:10.757Z,99.90
2023-05-16T02:07:39.056Z,99.90
2023-05-16T02:10:09.378Z,99.90
2023-05-16T02:12:38.898Z,99.90
2023-05-16T02:15:08.175Z,99.90
2023-05-16T02:17:36.476Z,99.90
2023-05-16T02:20:07.229Z,99.90
2023-05-16T02:22:36.137Z,99.90
2023-05-16T02:25:05.025Z,99.90
2023-05-16T02:27:33.517Z,99.90
2023-05-16T02:30:03.026Z,99.90
2023-05-16T02:32:31.181Z,99.90
2023-05-16T02:34:59.360Z,99.90
2023-05-16T02:37:27.534Z,99.90
2023-05-16T02:39:55.660Z,99.90
2023-05-16T02:42:23.756Z,99.90
2023-05-16T02:44:51.818Z,99.90
2023-05-16T02:47:21.352Z,99.90
2023-05-16T02:49:49.536Z,99.90
2023-05-16T02:52:17.672Z,99.90
2023-05-16T02:54:51.887Z,99.90
2023-05-16T02:57:28.318Z,99.90
2023-05-16T02:59:56.782Z,99.90
2023-05-16T03:02:26.402Z,99.90
2023-05-16T03:04:54.598Z,99.90
2023-05-16T03:07:22.981Z,99.90
2023-05-16T03:09:51.229Z,99.90
2023-05-16T03:12:19.865Z,99.90
2023-05-16T03:14:47.956Z,99.90
2023-05-16T03:17:16.074Z,99.90
2023-05-16T03:19:45.550Z,99.90
2023-05-16T03:22:14.420Z,99.90
2023-05-16T03:24:44.874Z,99.90
2023-05-16T03:27:13.243Z,99.90
2023-05-16T03:29:41.333Z,99.90
2023-05-16T03:32:10.946Z,99.90
2023-05-16T03:34:39.682Z,99.90
2023-05-16T03:37:11.010Z,99.90
2023-05-16T03:39:39.123Z,99.90
2023-05-16T03:42:07.592Z,99.90
2023-05-16T03:44:35.744Z,99.90
2023-05-16T03:47:03.885Z,99.90
2023-05-16T03:49:31.995Z,99.90
2023-05-16T03:52:00.157Z,99.90
2023-05-16T03:54:29.633Z,99.90
2023-05-16T03:56:57.749Z,99.90
2023-05-16T03:59:25.869Z,99.90
2023-05-16T04:01:54.068Z,99.90
2023-05-16T04:04:22.231Z,99.90
2023-05-16T04:06:50.350Z,99.90
2023-05-16T04:09:18.716Z,99.90
2023-05-16T04:11:48.453Z,99.90
2023-05-16T04:14:16.730Z,99.90
2023-05-16T04:16:44.890Z,99.90
2023-05-16T04:19:13.191Z,99.90
2023-05-16T04:21:41.411Z,99.90
2023-05-16T04:24:09.918Z,99.90
2023-05-16T04:26:38.270Z,99.90
2023-05-16T04:29:08.109Z,99.90
2023-05-16T04:31:37.114Z,99.90
2023-05-16T04:34:05.906Z,99.90
2023-05-16T04:36:35.547Z,99.90
2023-05-16T04:39:03.660Z,99.90
2023-05-16T04:41:31.853Z,99.90
2023-05-16T04:44:00.367Z,99.90
2023-05-16T04:46:29.977Z,99.90
2023-05-16T04:48:58.202Z,99.90
2023-05-16T04:51:26.550Z,99.90
2023-05-16T04:53:54.727Z,99.90
2023-05-16T04:56:23.157Z,99.90
2023-05-16T04:58:51.247Z,99.90
2023-05-16T05:01:19.582Z,99.90
2023-05-16T05:03:49.075Z,99.90
2023-05-16T05:06:17.480Z,99.90
2023-05-16T05:08:45.565Z,99.90
2023-05-16T05:11:13.782Z,99.90
2023-05-16T05:13:41.883Z,99.90
2023-05-16T05:16:10.072Z,99.90
2023-05-16T05:18:38.245Z,99.90
2023-05-16T05:21:07.700Z,99.90
2023-05-16T05:23:35.830Z,99.90
2023-05-16T05:26:04.007Z,99.90
2023-05-16T05:28:32.119Z,99.90
2023-05-16T05:31:00.220Z,99.90
2023-05-16T05:33:29.360Z,99.90
2023-05-16T05:35:57.620Z,99.90
2023-05-16T05:38:27.070Z,99.90
2023-05-16T05:40:55.197Z,99.90
2023-05-16T05:43:23.267Z,99.90
2023-05-16T05:45:51.484Z,99.90
2023-05-16T05:48:19.693Z,99.90
2023-05-16T05:50:47.986Z,99.90
2023-05-16T05:53:16.140Z,99.90
2023-05-16T05:55:45.606Z,99.90
2023-05-16T05:58:13.815Z,99.90
2023-05-16T06:00:41.896Z,99.90
2023-05-16T06:03:10.096Z,99.90
2023-05-16T06:05:38.288Z,99.90
2023-05-16T06:08:06.594Z,99.90
2023-05-16T06:10:34.699Z,99.90
2023-05-16T06:13:04.179Z,99.90
2023-05-16T06:15:32.419Z,99.90
2023-05-16T06:18:00.585Z,99.90
2023-05-16T06:20:28.760Z,99.90
2023-05-16T06:22:56.897Z,99.90
2023-05-16T06:25:25.136Z,99.90
2023-05-16T06:27:53.524Z,99.90
2023-05-16T06:30:22.993Z,99.90
2023-05-16T06:32:51.411Z,99.90
2023-05-16T06:35:19.694Z,99.90
2023-05-16T06:37:47.812Z,99.90
2023-05-16T06:40:15.949Z,99.90
2023-05-16T06:42:44.074Z,99.90
2023-05-16T06:45:13.645Z,99.90
2023-05-16T06:47:43.321Z,99.90
2023-05-16T06:50:12.015Z,99.90
2023-05-16T06:52:40.188Z,99.90
2023-05-16T06:55:08.967Z,99.90
2023-05-16T06:57:37.134Z,99.90
2023-05-16T07:00:06.357Z,99.90
2023-05-16T07:02:34.778Z,99.90
2023-05-16T07:05:05.128Z,99.90
2023-05-16T07:07:33.310Z,99.90
2023-05-16T07:10:01.428Z,99.90
2023-05-16T07:12:29.580Z,99.90
2023-05-16T07:14:57.769Z,99.90
2023-05-16T07:17:26.529Z,99.90
2023-05-16T07:19:54.700Z,99.90
2023-05-16T07:22:24.213Z,99.90
2023-05-16T07:24:54.350Z,99.90
2023-05-16T07:27:23.772Z,99.90
2023-05-16T07:29:51.970Z,99.90
2023-05-16T07:32:20.458Z,99.90
2023-05-16T07:34:50.874Z,99.90
2023-05-16T07:37:20.555Z,99.90
2023-05-16T07:39:50.111Z,99.90
2023-05-16T07:42:18.246Z,99.90
2023-05-16T07:44:46.472Z,99.90
2023-05-16T07:47:14.755Z,99.90
2023-05-16T07:49:42.897Z,99.90
2023-05-16T07:52:11.150Z,99.90
2023-05-16T07:54:39.408Z,99.90
2023-05-16T07:57:09.075Z,99.90
2023-05-16T07:59:37.289Z,99.90
2023-05-16T08:02:05.863Z,99.90
2023-05-16T08:04:34.247Z,99.90
2023-05-16T08:07:02.603Z,99.90
2023-05-16T08:09:31.380Z,99.90
2023-05-16T08:12:03.455Z,99.90
2023-05-16T08:14:33.475Z,99.90
2023-05-16T08:17:04.596Z,99.90
2023-05-16T08:19:32.987Z,99.90
2023-05-16T08:22:01.248Z,99.90
2023-05-16T08:24:29.471Z,99.90
2023-05-16T08:26:57.685Z,99.90
2023-05-16T08:29:26.246Z,99.90
2023-05-16T08:31:55.772Z,99.90
2023-05-16T08:34:24.167Z,99.90
2023-05-16T08:36:52.325Z,99.90
2023-05-16T08:39:20.450Z,99.90
2023-05-16T08:41:48.667Z,99.90
2023-05-16T08:44:21.475Z,99.90
2023-05-16T08:46:53.216Z,99.90
2023-05-16T08:49:23.993Z,99.90
2023-05-16T08:51:57.755Z,99.90
2023-05-16T08:54:28.184Z,99.90
2023-05-16T08:56:59.232Z,99.90
2023-05-16T08:59:28.261Z,99.90
2023-05-16T09:01:56.731Z,99.90
2023-05-16T09:04:27.721Z,99.90
2023-05-16T09:06:56.216Z,99.90
2023-05-16T09:09:25.395Z,99.90
2023-05-16T09:11:53.557Z,99.90
2023-05-16T09:14:21.723Z,99.90
2023-05-16T09:17:05.006Z,99.90
2023-05-16T09:19:41.603Z,99.90
2023-05-16T09:22:12.422Z,99.90
2023-05-16T09:24:41.069Z,99.90
2023-05-16T09:27:10.524Z,99.90
2023-05-16T09:29:41.143Z,99.90
2023-05-16T09:32:14.833Z,99.90
2023-05-16T09:34:48.897Z,99.90
2023-05-16T09:37:17.413Z,99.90
2023-05-16T09:39:48.518Z,99.90
2023-05-16T09:42:17.758Z,99.90
2023-05-16T09:44:48.556Z,99.90
2023-05-16T09:47:17.468Z,99.90
2023-05-16T09:49:48.311Z,99.90
2023-05-16T09:52:17.365Z,99.90
2023-05-16T09:54:48.747Z,99.90
2023-05-16T09:57:19.711Z,99.90
2023-05-16T09:59:47.929Z,99.90
2023-05-16T10:02:16.305Z,99.90
2023-05-16T10:04:46.567Z,99.90
2023-05-16T10:07:16.318Z,99.90
2023-05-16T10:09:46.264Z,99.90
2023-05-16T10:12:16.372Z,99.90
2023-05-16T10:14:46.684Z,99.90
2023-05-16T10:17:17.056Z,99.90
2023-05-16T10:19:47.743Z,99.90
2023-05-16T10:22:17.258Z,99.90
2023-05-16T10:24:49.560Z,99.90
2023-05-16T10:27:19.422Z,99.90
2023-05-16T10:32:24.546Z,99.90
2023-05-16T10:34:55.675Z,99.90
2023-05-16T10:37:24.880Z,99.90
2023-05-16T10:39:54.174Z,99.90
2023-05-16T10:42:22.532Z,99.90
2023-05-16T10:45:01.907Z,99.90
2023-05-16T10:47:32.928Z,99.90
2023-05-16T10:50:02.534Z,99.80
2023-05-16T10:52:34.930Z,99.40
2023-05-16T10:55:05.594Z,99.10
2023-05-16T10:57:36.638Z,98.70
2023-05-16T11:00:10.364Z,98.90
2023-05-16T11:02:42.768Z,98.80
2023-05-16T11:05:19.405Z,98.70
2023-05-16T11:08:05.308Z,98.80
2023-05-16T11:10:35.978Z,98.30
2023-05-16T11:13:08.415Z,98.10
2023-05-16T11:15:36.569Z,98.30
2023-05-16T11:18:09.423Z,98.20
2023-05-16T11:20:40.961Z,97.90
2023-05-16T11:23:26.954Z,98.30
2023-05-16T11:25:57.452Z,98.20
2023-05-16T11:28:27.160Z,98.50
2023-05-16T11:30:58.199Z,98.00
2023-05-16T11:33:27.755Z,98.10
2023-05-16T11:36:15.192Z,98.30
2023-05-16T11:38:44.677Z,97.90
2023-05-16T11:41:15.463Z,97.70
2023-05-16T11:43:45.813Z,97.50
2023-05-16T11:46:14.159Z,96.70
2023-05-16T11:48:43.029Z,96.70
2023-05-16T11:51:14.773Z,96.90
2023-05-16T11:53:43.023Z,96.90
2023-05-16T11:56:11.226Z,96.80
2023-05-16T11:58:39.749Z,96.90
2023-05-16T12:01:08.244Z,96.50
2023-05-16T12:03:37.192Z,96.50
2023-05-16T12:06:06.107Z,96.60
2023-05-16T12:08:35.872Z,96.60
2023-05-16T12:11:04.104Z,96.60
2023-05-16T12:13:32.690Z,96.60
2023-05-16T12:16:00.929Z,96.30
2023-05-16T12:18:29.138Z,96.10
2023-05-16T12:20:57.318Z,96.30
2023-05-16T12:23:29.299Z,96.10
2023-05-16T12:26:01.988Z,95.90
2023-05-16T12:28:34.713Z,95.90
2023-05-16T12:31:03.040Z,95.90
2023-05-16T12:33:31.314Z,95.70
2023-05-16T12:36:01.724Z,95.60
2023-05-16T12:38:30.035Z,95.40
2023-05-16T12:41:00.410Z,95.50
2023-05-16T12:43:28.792Z,95.60
2023-05-16T12:45:58.432Z,95.40
2023-05-16T12:48:35.724Z,95.50
2023-05-16T12:51:14.781Z,95.10
2023-05-16T12:53:47.367Z,95.40
2023-05-16T12:56:24.296Z,95.20
2023-05-16T12:58:52.537Z,95.80
2023-05-16T13:01:20.708Z,95.40
2023-05-16T13:03:48.991Z,95.00
2023-05-16T13:06:17.525Z,94.50
2023-05-16T13:08:46.150Z,94.90
2023-05-16T13:11:14.459Z,95.00
2023-05-16T13:13:43.988Z,94.70
2023-05-16T13:16:12.219Z,94.90
2023-05-16T13:18:40.437Z,94.80
2023-05-16T13:21:11.500Z,94.90
2023-05-16T13:23:39.671Z,94.90
2023-05-16T13:26:07.861Z,94.60
2023-05-16T13:28:36.405Z,94.50
2023-05-16T13:31:06.001Z,94.70
2023-05-16T13:33:36.090Z,95.00
2023-05-16T13:36:04.433Z,95.00
2023-05-16T13:38:32.531Z,94.90
2023-05-16T13:41:01.071Z,94.80
2023-05-16T13:43:29.236Z,94.70
2023-05-16T13:45:57.504Z,94.20
2023-05-16T13:48:27.484Z,94.00
2023-05-16T13:50:55.964Z,93.90
2023-05-16T13:53:24.530Z,93.20
2023-05-16T13:55:52.736Z,93.00
2023-05-16T13:58:21.068Z,93.00
2023-05-16T14:00:49.706Z,92.80
2023-05-16T14:03:18.204Z,92.40
2023-05-16T14:05:49.673Z,91.80
2023-05-16T14:08:17.831Z,92.30
2023-05-16T14:10:45.984Z,91.90
2023-05-16T14:13:14.158Z,91.60
2023-05-16T14:15:42.330Z,91.80
2023-05-16T14:18:10.598Z,91.80
2023-05-16T14:20:38.728Z,92.00
2023-05-16T14:23:08.188Z,92.20
2023-05-16T14:25:36.374Z,92.10
2023-05-16T14:28:04.653Z,92.40
2023-05-16T14:30:32.848Z,92.00
2023-05-16T14:33:01.329Z,91.80
2023-05-16T14:35:29.894Z,91.60
2023-05-16T14:37:58.311Z,91.80
2023-05-16T14:40:27.950Z,91.90
2023-05-16T14:42:56.121Z,91.90
2023-05-16T14:45:24.311Z,91.90
2023-05-16T14:47:52.813Z,91.90
2023-05-16T14:50:21.152Z,91.70
2023-05-16T14:52:49.984Z,91.50
2023-05-16T14:55:18.219Z,90.70
2023-05-16T14:57:50.446Z,90.80
2023-05-16T15:00:26.405Z,90.70
2023-05-16T15:02:54.895Z,90.60
2023-05-16T15:05:25.610Z,90.70
2023-05-16T15:07:53.862Z,90.60
2023-05-16T15:10:22.046Z,90.70
2023-05-16T15:12:51.601Z,90.90
2023-05-16T15:15:19.869Z,90.90
2023-05-16T15:17:48.033Z,90.70
2023-05-16T15:20:16.301Z,91.00
2023-05-16T15:22:44.495Z,90.50
2023-05-16T15:25:12.692Z,90.90
2023-05-16T15:27:41.238Z,90.80
2023-05-16T15:30:12.341Z,90.40
2023-05-16T15:32:40.680Z,90.30
2023-05-16T15:35:09.605Z,90.40
2023-05-16T15:37:37.789Z,90.50
2023-05-16T15:40:08.343Z,89.90
2023-05-16T15:42:36.496Z,89.40
2023-05-16T15:45:05.031Z,89.30
2023-05-16T15:47:34.526Z,89.00
2023-05-16T15:50:02.718Z,88.60
2023-05-16T15:52:32.692Z,88.90
2023-05-16T15:55:01.341Z,87.30
2023-05-16T15:57:29.827Z,88.20
2023-05-16T15:59:58.110Z,88.00
2023-05-16T16:02:26.541Z,88.10
2023-05-16T16:04:56.175Z,87.80
2023-05-16T16:07:24.768Z,87.10
2023-05-16T16:09:52.914Z,88.10
2023-05-16T16:12:21.469Z,88.40
2023-05-16T16:14:50.335Z,87.40
2023-05-16T16:17:18.634Z,88.10
2023-05-16T16:19:46.927Z,88.10
2023-05-16T16:22:16.782Z,87.50
2023-05-16T16:24:44.960Z,87.30
2023-05-16T16:27:13.074Z,87.10
2023-05-16T16:29:41.212Z,87.80
2023-05-16T16:32:09.490Z,87.70
2023-05-16T16:34:37.633Z,87.90
2023-05-16T16:37:06.119Z,87.60
2023-05-16T16:39:35.624Z,88.70
2023-05-16T16:42:03.784Z,88.40
2023-05-16T16:44:31.920Z,89.10
2023-05-16T16:47:00.129Z,88.60
2023-05-16T16:49:28.346Z,88.40
2023-05-16T16:51:57.714Z,88.90
2023-05-16T16:54:25.996Z,88.40
2023-05-16T16:56:58.077Z,87.80
2023-05-16T16:59:26.240Z,88.10
2023-05-16T17:01:54.458Z,87.90
2023-05-16T17:04:22.705Z,87.20
2023-05-16T17:06:50.957Z,88.70
2023-05-16T17:09:19.786Z,88.90
2023-05-16T17:11:47.974Z,88.70
2023-05-16T17:14:17.566Z,87.70
2023-05-16T17:16:45.878Z,87.20
2023-05-16T17:19:14.174Z,88.40
2023-05-16T17:21:43.587Z,87.30
2023-05-16T17:24:11.777Z,87.50
2023-05-16T17:26:39.963Z,87.70
2023-05-16T17:29:08.162Z,87.30
2023-05-16T17:31:37.704Z,87.60
2023-05-16T17:34:05.880Z,87.40
2023-05-16T17:36:34.635Z,86.90
2023-05-16T17:39:07.706Z,87.40
2023-05-16T17:41:36.239Z,86.20
2023-05-16T17:44:06.736Z,85.90
2023-05-16T17:46:35.135Z,85.50
2023-05-16T17:49:04.804Z,85.50
2023-05-16T17:51:47.404Z,85.40
2023-05-16T17:54:16.850Z,85.40
2023-05-16T17:56:45.749Z,86.30
2023-05-16T17:59:14.939Z,85.60
2023-05-16T18:01:43.764Z,86.10
2023-05-16T18:04:14.375Z,86.20
2023-05-16T18:06:44.075Z,86.60
2023-05-16T18:09:15.005Z,87.30
2023-05-16T18:11:43.614Z,87.00
2023-05-16T18:14:12.868Z,87.20
2023-05-16T18:16:41.106Z,87.00
2023-05-16T18:19:09.556Z,86.50
2023-05-16T18:21:39.189Z,86.60
2023-05-16T18:24:08.677Z,87.50
2023-05-16T18:26:37.238Z,88.00
2023-05-16T18:29:05.599Z,88.00
2023-05-16T18:31:34.003Z,87.00
2023-05-16T18:34:02.857Z,86.90
2023-05-16T18:36:31.157Z,87.30
2023-05-16T18:39:00.769Z,88.10
2023-05-16T18:41:29.115Z,88.10
2023-05-16T18:43:57.240Z,88.70
2023-05-16T18:46:25.438Z,88.40
2023-05-16T18:48:57.573Z,87.80
2023-05-16T18:51:25.943Z,88.80
2023-05-16T18:53:54.211Z,89.00
2023-05-16T18:56:23.924Z,88.90
2023-05-16T18:58:52.116Z,88.60
2023-05-16T19:01:22.255Z,88.70
2023-05-16T19:03:50.579Z,88.80
2023-05-16T19:06:18.874Z,89.00
2023-05-16T19:08:48.364Z,88.70
2023-05-16T19:11:17.361Z,88.50
2023-05-16T19:13:47.562Z,88.80
2023-05-16T19:16:16.023Z,89.00
2023-05-16T19:18:44.371Z,88.90
2023-05-16T19:21:13.489Z,89.10
2023-05-16T19:23:41.883Z,89.00
2023-05-16T19:26:10.027Z,89.30
2023-05-16T19:28:40.464Z,89.00
2023-05-16T19:31:11.063Z,89.00
2023-05-16T19:33:39.249Z,88.90
2023-05-16T19:36:08.163Z,89.20
2023-05-16T19:38:36.332Z,89.10
2023-05-16T19:41:04.544Z,89.20
2023-05-16T19:43:33.739Z,89.00
2023-05-16T19:46:02.078Z,89.20
2023-05-16T19:48:31.752Z,89.00
2023-05-16T19:51:00.142Z,89.20
2023-05-16T19:53:28.316Z,89.30
2023-05-16T19:55:56.509Z,89.30
2023-05-16T19:58:25.982Z,89.30
2023-05-16T20:00:55.630Z,89.50
2023-05-16T20:03:24.840Z,89.60
2023-05-16T20:05:54.404Z,89.20
2023-05-16T20:08:22.636Z,89.60
2023-05-16T20:10:51.164Z,89.10
2023-05-16T20:13:20.435Z,89.50
2023-05-16T20:15:48.963Z,89.50
2023-05-16T20:18:17.102Z,90.10
2023-05-16T20:20:45.398Z,90.00
2023-05-16T20:23:15.197Z,90.00
2023-05-16T20:25:43.665Z,89.80
2023-05-16T20:28:11.849Z,90.20
2023-05-16T20:30:39.998Z,90.00
2023-05-16T20:33:08.575Z,89.80
2023-05-16T20:35:36.658Z,90.10
2023-05-16T20:38:04.786Z,90.30
2023-05-16T20:40:34.343Z,90.40
2023-05-16T20:43:02.518Z,90.50
2023-05-16T20:45:31.217Z,90.40
2023-05-16T20:47:59.546Z,90.20
2023-05-16T20:50:27.854Z,90.10
2023-05-16T20:52:56.043Z,90.30
2023-05-16T20:55:26.023Z,90.30
2023-05-16T20:57:55.673Z,90.40
2023-05-16T21:00:24.168Z,90.40
2023-05-16T21:02:52.365Z,90.30
2023-05-16T21:05:25.596Z,90.50
2023-05-16T21:07:54.209Z,90.70
2023-05-16T21:10:22.404Z,90.70
2023-05-16T21:12:50.736Z,90.70
2023-05-16T21:15:23.117Z,90.70
2023-05-16T21:17:52.267Z,90.90
2023-05-16T21:20:20.641Z,91.00
2023-05-16T21:22:48.766Z,91.00
2023-05-16T21:25:16.991Z,91.00
2023-05-16T21:27:45.273Z,91.00
2023-05-16T21:30:14.507Z,91.00
2023-05-16T21:32:44.029Z,91.10
2023-05-16T21:35:12.301Z,91.30
2023-05-16T21:37:40.805Z,91.30
2023-05-16T21:40:10.152Z,91.30
2023-05-16T21:42:38.291Z,91.40
2023-05-16T21:45:12.423Z,91.40
2023-05-16T21:47:40.650Z,91.50
2023-05-16T21:50:11.435Z,91.50
2023-05-16T21:52:41.201Z,91.60
2023-05-16T21:55:09.998Z,91.70
2023-05-16T21:57:38.172Z,91.80
2023-05-16T22:00:09.678Z,91.90
2023-05-16T22:02:38.247Z,91.90
2023-05-16T22:05:07.421Z,92.10
2023-05-16T22:07:37.208Z,92.00
2023-05-16T22:10:06.864Z,92.40
2023-05-16T22:12:35.149Z,92.10
2023-05-16T22:15:03.303Z,92.20
2023-05-16T22:17:32.672Z,92.30
2023-05-16T22:20:02.074Z,92.30
2023-05-16T22:22:30.317Z,92.40
2023-05-16T22:24:59.887Z,92.40
2023-05-16T22:27:28.071Z,92.50
2023-05-16T22:29:56.257Z,92.50
2023-05-16T22:32:24.400Z,92.60
2023-05-16T22:34:53.046Z,92.60
2023-05-16T22:37:21.198Z,92.70
2023-05-16T22:39:49.361Z,92.60
2023-05-16T22:42:18.852Z,92.60
2023-05-16T22:44:47.040Z,92.80
2023-05-16T22:47:15.278Z,92.60
2023-05-16T22:49:43.434Z,92.60
2023-05-16T22:52:11.592Z,92.70
2023-05-16T22:54:41.559Z,92.80
2023-05-16T22:57:09.850Z,92.80
2023-05-16T22:59:39.351Z,92.80
2023-05-16T23:02:07.538Z,92.80
2023-05-16T23:04:35.777Z,92.80
2023-05-16T23:07:04.079Z,92.90
2023-05-16T23:09:32.238Z,92.90
2023-05-16T23:12:00.503Z,93.00
2023-05-16T23:14:28.758Z,93.00
2023-05-16T23:16:58.269Z,93.10
2023-05-16T23:19:26.658Z,93.10
2023-05-16T23:21:54.955Z,93.10
2023-05-16T23:24:23.839Z,93.00
2023-05-16T23:26:52.010Z,93.00
2023-05-16T23:29:20.173Z,93.10
2023-05-16T23:31:48.327Z,93.10
2023-05-16T23:34:17.802Z,93.30
2023-05-16T23:36:46.118Z,93.20
2023-05-16T23:39:14.290Z,93.40
2023-05-16T23:41:42.425Z,93.20
2023-05-16T23:44:10.597Z,93.20
2023-05-16T23:46:38.721Z,93.20
2023-05-16T23:49:06.863Z,93.30
2023-05-16T23:51:55.515Z,93.40
2023-05-16T23:54:24.602Z,93.40
2023-05-16T23:56:52.782Z,93.30
2023-05-16T23:59:20.946Z,93.50
